createdAt,value
2023-04-06T00:00:15.470Z,76.26
2023-04-06T00:02:41.946Z,75.88
2023-04-06T00:05:08.716Z,75.64
2023-04-06T00:07:35.396Z,75.80
2023-04-06T00:10:02.210Z,75.79
2023-04-06T00:12:28.613Z,75.85
2023-04-06T00:14:55.218Z,75.71
2023-04-06T00:17:21.730Z,75.77
2023-04-06T00:19:48.121Z,75.04
2023-04-06T00:22:14.592Z,75.58
2023-04-06T00:24:41.061Z,75.49
2023-04-06T00:27:07.488Z,75.60
2023-04-06T00:29:33.893Z,75.46
2023-04-06T00:32:00.533Z,76.06
2023-04-06T00:34:27.002Z,75.79
2023-04-06T00:36:53.444Z,76.12
2023-04-06T00:39:21.083Z,76.08
2023-04-06T00:41:52.448Z,76.30
2023-04-06T00:44:19.680Z,76.42
2023-04-06T00:46:46.202Z,76.29
2023-04-06T00:49:12.627Z,76.30
2023-04-06T00:51:39.102Z,76.39
2023-04-06T00:54:06.065Z,77.15
2023-04-06T00:56:34.472Z,77.22
2023-04-06T00:59:01.407Z,77.39
2023-04-06T01:01:30.534Z,76.92
2023-04-06T01:04:01.245Z,77.54
2023-04-06T01:06:27.711Z,76.95
2023-04-06T01:08:59.184Z,77.41
2023-04-06T01:11:27.228Z,76.63
2023-04-06T01:13:54.311Z,77.04
2023-04-06T01:16:32.403Z,76.74
2023-04-06T01:19:12.956Z,76.72
2023-04-06T01:21:43.988Z,76.62
2023-04-06T01:24:27.531Z,76.87
2023-04-06T01:27:02.336Z,76.60
2023-04-06T01:29:37.172Z,76.62
2023-04-06T01:32:06.405Z,76.99
2023-04-06T01:34:37.997Z,77.27
2023-04-06T01:37:06.155Z,77.40
2023-04-06T01:39:32.635Z,76.94
2023-04-06T01:42:01.746Z,77.28
2023-04-06T01:44:31.168Z,77.35
2023-04-06T01:47:06.730Z,77.69
2023-04-06T01:49:33.380Z,77.31
2023-04-06T01:52:00.607Z,77.71
2023-04-06T01:54:27.072Z,77.49
2023-04-06T01:57:11.811Z,76.91
2023-04-06T01:59:43.484Z,75.91
2023-04-06T02:02:18.517Z,77.18
2023-04-06T02:04:54.403Z,78.62
2023-04-06T02:07:20.971Z,78.45
2023-04-06T02:09:47.528Z,78.19
2023-04-06T02:12:22.186Z,78.47
2023-04-06T02:14:48.625Z,78.11
2023-04-06T02:17:15.404Z,78.33
2023-04-06T02:19:41.941Z,78.36
2023-04-06T02:22:08.401Z,78.16
2023-04-06T02:24:34.816Z,77.98
2023-04-06T02:27:01.526Z,77.38
2023-04-06T02:29:27.987Z,78.16
2023-04-06T02:31:54.802Z,78.11
2023-04-06T02:34:21.842Z,78.32
2023-04-06T02:36:51.833Z,78.52
2023-04-06T02:39:18.534Z,78.22
2023-04-06T02:41:44.955Z,77.74
2023-04-06T02:44:14.942Z,78.02
2023-04-06T02:46:43.395Z,77.95
2023-04-06T02:49:10.000Z,77.75
2023-04-06T02:51:36.610Z,78.35
2023-04-06T02:54:15.039Z,77.99
2023-04-06T02:56:41.481Z,77.99
2023-04-06T02:59:08.266Z,77.57
2023-04-06T03:01:35.333Z,78.09
2023-04-06T03:04:04.618Z,78.16
2023-04-06T03:06:31.381Z,78.06
2023-04-06T03:09:04.724Z,78.37
2023-04-06T03:11:32.971Z,77.66
2023-04-06T03:14:00.141Z,77.65
2023-04-06T03:16:26.774Z,77.79
2023-04-06T03:18:53.544Z,78.34
2023-04-06T03:21:20.566Z,78.49
2023-04-06T03:23:51.932Z,78.58
2023-04-06T03:26:18.701Z,77.28
2023-04-06T03:28:45.296Z,76.96
2023-04-06T03:31:11.871Z,78.77
2023-04-06T03:33:46.315Z,79.63
2023-04-06T03:36:21.854Z,79.92
2023-04-06T03:38:48.404Z,79.34
2023-04-06T03:41:15.232Z,80.77
2023-04-06T03:43:48.430Z,80.63
2023-04-06T03:46:14.866Z,80.48
2023-04-06T03:48:41.315Z,80.08
2023-04-06T03:51:07.736Z,80.21
2023-04-06T03:53:34.162Z,81.11
2023-04-06T03:56:02.732Z,81.00
2023-04-06T03:58:30.605Z,82.12
2023-04-06T04:00:57.083Z,81.19
2023-04-06T04:03:24.617Z,81.78
2023-04-06T04:05:51.948Z,80.66
2023-04-06T04:08:18.741Z,81.52
2023-04-06T04:10:45.814Z,80.68
2023-04-06T04:13:13.167Z,81.06
2023-04-06T04:15:41.660Z,81.05
2023-04-06T04:18:09.476Z,81.63
2023-04-06T04:20:36.184Z,82.17
2023-04-06T04:23:02.652Z,82.25
2023-04-06T04:25:32.072Z,82.14
2023-04-06T04:27:58.741Z,81.99
2023-04-06T04:30:25.179Z,82.03
2023-04-06T04:32:51.692Z,81.44
2023-04-06T04:35:21.346Z,81.89
2023-04-06T04:37:47.864Z,82.21
2023-04-06T04:40:14.433Z,81.76
2023-04-06T04:42:52.197Z,81.80
2023-04-06T04:45:30.068Z,81.55
2023-04-06T04:47:58.895Z,81.71
2023-04-06T04:50:30.785Z,82.45
2023-04-06T04:52:58.481Z,82.31
2023-04-06T04:55:27.035Z,81.93
2023-04-06T04:57:56.297Z,83.02
2023-04-06T05:00:31.625Z,82.46
2023-04-06T05:02:59.274Z,82.19
2023-04-06T05:05:28.689Z,82.65
2023-04-06T05:07:55.273Z,83.42
2023-04-06T05:10:36.330Z,83.44
2023-04-06T05:13:03.464Z,83.63
2023-04-06T05:15:29.994Z,83.81
2023-04-06T05:18:02.444Z,83.70
2023-04-06T05:20:32.723Z,86.54
2023-04-06T05:22:59.863Z,83.92
2023-04-06T05:25:26.682Z,84.65
2023-04-06T05:27:56.658Z,82.56
2023-04-06T05:30:28.934Z,85.14
2023-04-06T05:32:55.617Z,84.92
2023-04-06T05:35:24.461Z,82.46
2023-04-06T05:37:54.703Z,82.74
2023-04-06T05:40:24.215Z,81.34
2023-04-06T05:42:51.193Z,81.12
2023-04-06T05:45:19.348Z,80.49
2023-04-06T05:47:51.228Z,80.60
2023-04-06T05:50:27.614Z,79.59
2023-04-06T05:52:54.096Z,76.94
2023-04-06T05:55:22.693Z,78.26
2023-04-06T05:57:56.728Z,79.58
2023-04-06T06:00:23.211Z,77.97
2023-04-06T06:03:00.375Z,77.13
2023-04-06T06:05:30.013Z,76.05
2023-04-06T06:08:02.973Z,75.93
2023-04-06T06:10:30.187Z,74.26
2023-04-06T06:12:56.895Z,73.03
2023-04-06T06:15:23.411Z,72.62
2023-04-06T06:17:49.866Z,73.02
2023-04-06T06:20:17.311Z,70.63
2023-04-06T06:22:44.359Z,70.47
2023-04-06T06:25:16.621Z,71.06
2023-04-06T06:27:45.474Z,68.99
2023-04-06T06:30:12.164Z,69.23
2023-04-06T06:32:41.578Z,67.95
2023-04-06T06:35:09.130Z,66.71
2023-04-06T06:37:35.625Z,66.68
2023-04-06T06:40:02.934Z,66.36
2023-04-06T06:42:31.539Z,66.43
2023-04-06T06:45:08.286Z,65.08
2023-04-06T06:47:34.770Z,64.28
2023-04-06T06:50:01.284Z,63.29
2023-04-06T06:52:27.839Z,63.39
2023-04-06T06:54:56.413Z,63.17
2023-04-06T06:57:23.962Z,62.67
2023-04-06T06:59:51.008Z,62.68
2023-04-06T07:02:19.394Z,61.30
2023-04-06T07:04:49.301Z,60.91
2023-04-06T07:07:16.384Z,59.51
2023-04-06T07:09:43.238Z,59.38
2023-04-06T07:12:09.729Z,59.99
2023-04-06T07:14:37.704Z,59.32
2023-04-06T07:17:04.222Z,59.26
2023-04-06T07:19:31.847Z,59.34
2023-04-06T07:21:58.402Z,57.68
2023-04-06T07:24:27.427Z,58.34
2023-04-06T07:26:53.867Z,57.05
2023-04-06T07:29:20.629Z,56.23
2023-04-06T07:31:47.599Z,56.15
2023-04-06T07:34:15.527Z,55.58
2023-04-06T07:36:42.218Z,55.14
2023-04-06T07:39:08.827Z,54.74
2023-04-06T07:41:36.158Z,54.74
2023-04-06T07:44:02.630Z,54.21
2023-04-06T07:46:29.208Z,54.69
2023-04-06T07:48:58.253Z,53.77
2023-04-06T07:51:26.503Z,53.65
2023-04-06T07:53:53.098Z,52.20
2023-04-06T07:56:19.571Z,50.37
2023-04-06T07:58:45.996Z,50.98
2023-04-06T08:01:12.405Z,50.53
2023-04-06T08:03:39.014Z,48.43
2023-04-06T08:06:06.101Z,49.24
2023-04-06T08:08:32.778Z,49.35
2023-04-06T08:11:01.483Z,48.81
2023-04-06T08:13:29.067Z,48.88
2023-04-06T08:15:55.905Z,48.86
2023-04-06T08:18:23.395Z,48.63
2023-04-06T08:20:50.649Z,48.38
2023-04-06T08:23:17.046Z,47.47
2023-04-06T08:25:44.163Z,47.85
2023-04-06T08:28:10.621Z,48.00
2023-04-06T08:30:38.166Z,47.00
2023-04-06T08:33:04.577Z,47.03
2023-04-06T08:35:31.019Z,45.96
2023-04-06T08:37:57.933Z,46.01
2023-04-06T08:40:24.372Z,45.42
2023-04-06T08:42:54.969Z,45.45
2023-04-06T08:45:22.329Z,45.34
2023-04-06T08:47:51.090Z,44.70
2023-04-06T08:50:18.130Z,44.70
2023-04-06T08:52:49.293Z,44.78
2023-04-06T08:55:16.336Z,44.73
2023-04-06T08:57:44.352Z,43.91
2023-04-06T09:00:12.047Z,43.78
2023-04-06T09:02:44.601Z,43.04
2023-04-06T09:05:11.364Z,43.70
2023-04-06T09:07:38.333Z,42.93
2023-04-06T09:10:08.221Z,42.27
2023-04-06T09:12:35.522Z,42.29
2023-04-06T09:15:02.993Z,42.67
2023-04-06T09:17:34.557Z,42.46
2023-04-06T09:20:01.975Z,41.57
2023-04-06T09:22:39.756Z,41.55
2023-04-06T09:25:07.191Z,41.42
2023-04-06T09:27:35.551Z,41.42
2023-04-06T09:30:07.621Z,40.83
2023-04-06T09:32:46.604Z,42.00
2023-04-06T09:35:13.497Z,40.83
2023-04-06T09:37:39.916Z,41.09
2023-04-06T09:40:08.316Z,40.07
2023-04-06T09:42:35.901Z,40.50
2023-04-06T09:45:03.750Z,39.67
2023-04-06T09:47:34.260Z,39.38
2023-04-06T09:50:01.728Z,40.35
2023-04-06T09:52:38.264Z,39.86
2023-04-06T09:55:06.294Z,38.58
2023-04-06T09:57:51.360Z,37.80
2023-04-06T10:00:20.246Z,38.00
2023-04-06T10:02:59.121Z,36.87
2023-04-06T10:05:38.415Z,37.70
2023-04-06T10:08:09.513Z,36.26
2023-04-06T10:10:36.187Z,36.58
2023-04-06T10:13:03.053Z,36.37
2023-04-06T10:15:30.836Z,36.74
2023-04-06T10:18:01.622Z,37.11
2023-04-06T10:20:51.397Z,36.59
2023-04-06T10:23:32.008Z,37.18
2023-04-06T10:26:00.522Z,36.82
2023-04-06T10:28:32.083Z,36.82
2023-04-06T10:31:00.249Z,37.17
2023-04-06T10:33:27.585Z,37.02
2023-04-06T10:35:54.937Z,37.25
2023-04-06T10:38:22.947Z,36.56
2023-04-06T10:40:49.792Z,36.19
2023-04-06T10:43:23.433Z,35.75
2023-04-06T10:45:57.770Z,36.67
2023-04-06T10:48:25.038Z,34.96
2023-04-06T10:50:53.431Z,36.00
2023-04-06T10:53:25.047Z,36.55
2023-04-06T10:55:52.737Z,35.99
2023-04-06T10:58:19.879Z,36.58
2023-04-06T11:00:50.654Z,36.05
2023-04-06T11:03:18.925Z,36.23
2023-04-06T11:05:48.203Z,36.36
2023-04-06T11:08:44.161Z,35.96
2023-04-06T11:11:19.488Z,35.11
2023-04-06T11:13:58.003Z,35.06
2023-04-06T11:16:32.622Z,35.69
2023-04-06T11:18:59.014Z,36.12
2023-04-06T11:21:49.342Z,36.12
2023-04-06T11:24:20.527Z,36.23
2023-04-06T11:26:50.032Z,35.31
2023-04-06T11:29:18.593Z,36.30
2023-04-06T11:31:50.079Z,35.59
2023-04-06T11:34:21.092Z,34.09
2023-04-06T11:36:48.375Z,36.66
2023-04-06T11:39:20.389Z,36.01
2023-04-06T11:41:54.023Z,36.47
2023-04-06T11:44:32.948Z,36.93
2023-04-06T11:46:59.802Z,37.17
2023-04-06T11:49:30.417Z,36.50
2023-04-06T11:51:58.325Z,37.00
2023-04-06T11:54:34.484Z,36.44
2023-04-06T11:57:01.658Z,36.42
2023-04-06T11:59:28.332Z,36.46
2023-04-06T12:01:54.817Z,35.90
2023-04-06T12:04:21.667Z,36.58
2023-04-06T12:06:49.171Z,35.64
2023-04-06T12:09:16.443Z,35.54
2023-04-06T12:11:42.919Z,35.39
2023-04-06T12:14:09.624Z,34.69
2023-04-06T12:16:36.464Z,35.63
2023-04-06T12:19:04.251Z,35.47
2023-04-06T12:21:34.925Z,35.54
2023-04-06T12:24:02.284Z,35.31
2023-04-06T12:26:29.065Z,36.42
2023-04-06T12:28:55.464Z,35.64
2023-04-06T12:31:23.665Z,36.10
2023-04-06T12:33:51.278Z,35.53
2023-04-06T12:36:20.139Z,36.21
2023-04-06T12:38:48.653Z,35.60
2023-04-06T12:41:15.780Z,35.68
2023-04-06T12:43:42.921Z,35.57
2023-04-06T12:46:09.531Z,36.56
2023-04-06T12:48:36.502Z,35.89
2023-04-06T12:51:04.770Z,36.97
2023-04-06T12:53:31.713Z,36.01
2023-04-06T12:55:59.123Z,35.53
2023-04-06T12:58:27.685Z,35.14
2023-04-06T13:00:54.134Z,35.78
2023-04-06T13:03:22.074Z,35.30
2023-04-06T13:05:49.835Z,35.91
2023-04-06T13:08:17.079Z,35.31
2023-04-06T13:10:51.753Z,35.48
2023-04-06T13:13:19.050Z,35.60
2023-04-06T13:15:45.985Z,35.97
2023-04-06T13:18:12.511Z,35.50
2023-04-06T13:20:38.955Z,35.39
2023-04-06T13:23:05.393Z,35.54
2023-04-06T13:25:33.619Z,35.27
2023-04-06T13:28:00.300Z,34.79
2023-04-06T13:30:26.984Z,35.54
2023-04-06T13:32:53.394Z,35.49
2023-04-06T13:35:19.863Z,35.08
2023-04-06T13:37:46.278Z,35.77
2023-04-06T13:40:12.865Z,35.68
2023-04-06T13:42:41.666Z,35.16
2023-04-06T13:45:08.860Z,34.94
2023-04-06T13:47:35.874Z,35.25
2023-04-06T13:50:02.340Z,34.86
2023-04-06T13:52:28.735Z,35.75
2023-04-06T13:54:55.301Z,35.45
2023-04-06T13:57:21.747Z,34.54
2023-04-06T13:59:48.914Z,35.29
2023-04-06T14:02:15.572Z,34.86
2023-04-06T14:04:42.132Z,34.50
2023-04-06T14:07:08.578Z,34.61
2023-04-06T14:09:35.463Z,35.05
2023-04-06T14:12:01.906Z,34.48
2023-04-06T14:14:28.505Z,34.09
2023-04-06T14:16:55.547Z,34.49
2023-04-06T14:19:22.561Z,34.73
2023-04-06T14:21:49.806Z,33.99
2023-04-06T14:24:16.949Z,34.09
2023-04-06T14:26:43.739Z,34.62
2023-04-06T14:29:10.608Z,34.57
2023-04-06T14:31:37.942Z,34.07
2023-04-06T14:34:04.754Z,34.03
2023-04-06T14:36:38.809Z,33.86
2023-04-06T14:39:06.809Z,34.16
2023-04-06T14:41:34.460Z,33.93
2023-04-06T14:44:01.266Z,33.48
2023-04-06T14:46:28.286Z,33.36
2023-04-06T14:48:58.676Z,33.38
2023-04-06T14:51:28.107Z,33.81
2023-04-06T14:53:55.065Z,34.19
2023-04-06T14:56:23.001Z,34.06
2023-04-06T14:58:51.650Z,34.20
2023-04-06T15:01:19.414Z,34.19
2023-04-06T15:03:46.123Z,34.11
2023-04-06T15:06:16.143Z,34.54
2023-04-06T15:08:46.242Z,34.58
2023-04-06T15:11:13.618Z,34.61
2023-04-06T15:13:40.867Z,34.46
2023-04-06T15:16:07.793Z,34.85
2023-04-06T15:18:35.823Z,34.65
2023-04-06T15:21:02.501Z,34.88
2023-04-06T15:23:31.038Z,34.29
2023-04-06T15:25:58.724Z,34.60
2023-04-06T15:28:25.256Z,34.21
2023-04-06T15:30:51.938Z,34.87
2023-04-06T15:33:21.094Z,33.99
2023-04-06T15:35:47.623Z,34.08
2023-04-06T15:38:14.165Z,33.74
2023-04-06T15:40:48.594Z,33.84
2023-04-06T15:43:15.951Z,34.18
2023-04-06T15:45:42.524Z,34.57
2023-04-06T15:48:09.486Z,34.23
2023-04-06T15:50:36.549Z,34.37
2023-04-06T15:53:03.041Z,34.42
2023-04-06T15:55:29.461Z,35.09
2023-04-06T15:57:56.100Z,34.98
2023-04-06T16:00:22.776Z,35.04
2023-04-06T16:02:49.348Z,35.74
2023-04-06T16:05:15.916Z,35.65
2023-04-06T16:07:43.025Z,36.08
2023-04-06T16:10:10.031Z,35.91
2023-04-06T16:12:36.422Z,36.27
2023-04-06T16:15:02.945Z,36.24
2023-04-06T16:17:29.463Z,36.08
2023-04-06T16:19:56.129Z,36.48
2023-04-06T16:22:22.537Z,36.64
2023-04-06T16:24:48.915Z,36.30
2023-04-06T16:27:15.677Z,37.05
2023-04-06T16:29:42.080Z,36.95
2023-04-06T16:32:11.043Z,36.60
2023-04-06T16:34:37.712Z,36.28
2023-04-06T16:37:04.123Z,36.51
2023-04-06T16:39:30.608Z,36.76
2023-04-06T16:41:57.445Z,36.60
2023-04-06T16:44:23.975Z,37.68
2023-04-06T16:46:50.952Z,36.88
2023-04-06T16:49:19.380Z,37.39
2023-04-06T16:51:45.960Z,37.58
2023-04-06T16:54:12.374Z,37.60
2023-04-06T16:56:38.774Z,37.94
2023-04-06T16:59:08.028Z,38.23
2023-04-06T17:01:34.520Z,38.09
2023-04-06T17:04:02.003Z,38.66
2023-04-06T17:06:28.583Z,38.39
2023-04-06T17:08:55.025Z,38.69
2023-04-06T17:11:27.775Z,38.56
2023-04-06T17:13:54.850Z,38.73
2023-04-06T17:16:21.504Z,38.84
2023-04-06T17:18:47.944Z,39.11
2023-04-06T17:21:14.604Z,38.73
2023-04-06T17:23:41.640Z,38.63
2023-04-06T17:26:08.314Z,39.82
2023-04-06T17:28:34.770Z,39.73
2023-04-06T17:31:01.325Z,39.99
2023-04-06T17:33:28.278Z,40.12
2023-04-06T17:35:54.730Z,40.58
2023-04-06T17:38:21.426Z,39.98
2023-04-06T17:40:47.831Z,40.16
2023-04-06T17:43:14.247Z,40.58
2023-04-06T17:45:40.734Z,41.44
2023-04-06T17:48:07.730Z,40.73
2023-04-06T17:50:38.877Z,41.21
2023-04-06T17:53:05.610Z,41.76
2023-04-06T17:55:32.011Z,41.76
2023-04-06T17:57:58.410Z,41.80
2023-04-06T18:00:25.641Z,42.36
2023-04-06T18:02:53.630Z,42.05
2023-04-06T18:05:21.271Z,42.72
2023-04-06T18:07:48.480Z,42.34
2023-04-06T18:10:15.041Z,42.31
2023-04-06T18:12:41.496Z,42.84
2023-04-06T18:15:08.165Z,43.32
2023-04-06T18:17:34.906Z,43.03
2023-04-06T18:20:01.422Z,43.26
2023-04-06T18:22:28.453Z,43.14
2023-04-06T18:24:54.925Z,44.07
2023-04-06T18:27:21.681Z,43.59
2023-04-06T18:29:48.104Z,43.36
2023-04-06T18:32:16.591Z,43.26
2023-04-06T18:34:43.164Z,43.95
2023-04-06T18:37:09.675Z,43.82
2023-04-06T18:39:36.236Z,43.62
2023-04-06T18:42:03.155Z,43.82
2023-04-06T18:44:31.579Z,43.91
2023-04-06T18:46:58.214Z,44.36
2023-04-06T18:49:24.684Z,44.12
2023-04-06T18:51:51.212Z,43.93
2023-04-06T18:54:17.615Z,44.13
2023-04-06T18:56:44.009Z,44.54
2023-04-06T18:59:10.654Z,44.71
2023-04-06T19:01:40.785Z,44.93
2023-04-06T19:04:07.429Z,44.50
2023-04-06T19:06:33.949Z,45.17
2023-04-06T19:09:00.379Z,45.20
2023-04-06T19:11:27.276Z,45.32
2023-04-06T19:13:53.890Z,45.02
2023-04-06T19:16:20.619Z,45.53
2023-04-06T19:18:47.061Z,45.53
2023-04-06T19:21:21.525Z,45.91
2023-04-06T19:23:49.518Z,45.79
2023-04-06T19:26:17.060Z,46.14
2023-04-06T19:28:44.388Z,46.25
2023-04-06T19:31:13.002Z,46.13
2023-04-06T19:33:40.413Z,45.80
2023-04-06T19:36:07.719Z,45.86
2023-04-06T19:38:34.619Z,46.16
2023-04-06T19:41:01.741Z,46.19
2023-04-06T19:43:28.269Z,46.48
2023-04-06T19:45:54.727Z,46.78
2023-04-06T19:48:21.262Z,47.05
2023-04-06T19:50:47.723Z,46.62
2023-04-06T19:53:14.166Z,47.02
2023-04-06T19:55:40.701Z,47.44
2023-04-06T19:58:07.126Z,47.06
2023-04-06T20:00:33.583Z,47.25
2023-04-06T20:03:00.281Z,47.58
2023-04-06T20:05:26.954Z,47.33
2023-04-06T20:07:53.458Z,47.73
2023-04-06T20:10:19.863Z,47.83
2023-04-06T20:12:46.306Z,47.88
2023-04-06T20:15:12.760Z,48.34
2023-04-06T20:17:39.225Z,48.49
2023-04-06T20:20:06.254Z,48.78
2023-04-06T20:22:32.653Z,49.09
2023-04-06T20:24:59.080Z,48.92
2023-04-06T20:27:25.549Z,49.20
2023-04-06T20:29:52.074Z,49.27
2023-04-06T20:32:20.997Z,49.10
2023-04-06T20:34:48.294Z,49.04
2023-04-06T20:37:15.163Z,49.64
2023-04-06T20:39:41.874Z,50.16
2023-04-06T20:42:08.559Z,50.56
2023-04-06T20:44:35.623Z,50.21
2023-04-06T20:47:03.628Z,50.35
2023-04-06T20:49:30.181Z,50.59
2023-04-06T20:51:57.194Z,50.53
2023-04-06T20:54:23.638Z,50.56
2023-04-06T20:56:50.227Z,51.71
2023-04-06T20:59:16.639Z,51.00
2023-04-06T21:01:43.369Z,51.18
2023-04-06T21:04:10.040Z,52.12
2023-04-06T21:06:36.628Z,52.02
2023-04-06T21:09:03.553Z,52.76
2023-04-06T21:11:29.990Z,52.86
2023-04-06T21:13:56.501Z,53.49
2023-04-06T21:16:23.126Z,54.20
2023-04-06T21:18:49.571Z,53.97
2023-04-06T21:21:15.975Z,54.24
2023-04-06T21:23:42.370Z,53.74
2023-04-06T21:26:12.140Z,54.09
2023-04-06T21:28:38.855Z,54.35
2023-04-06T21:31:08.792Z,54.97
2023-04-06T21:33:35.402Z,54.54
2023-04-06T21:36:08.417Z,54.51
2023-04-06T21:38:35.224Z,54.15
2023-04-06T21:41:01.683Z,55.03
2023-04-06T21:43:28.103Z,55.21
2023-04-06T21:45:54.617Z,55.06
2023-04-06T21:48:21.031Z,55.64
2023-04-06T21:50:47.480Z,55.53
2023-04-06T21:53:13.938Z,56.38
2023-04-06T21:55:45.996Z,56.68
2023-04-06T21:58:12.617Z,56.77
2023-04-06T22:00:39.197Z,57.55
2023-04-06T22:03:05.756Z,57.59
2023-04-06T22:05:32.695Z,57.34
2023-04-06T22:08:02.032Z,57.58
2023-04-06T22:10:29.261Z,58.05
2023-04-06T22:12:55.841Z,58.51
2023-04-06T22:15:22.309Z,58.67
2023-04-06T22:17:48.730Z,58.35
2023-04-06T22:20:15.595Z,58.00
2023-04-06T22:22:42.067Z,58.29
2023-04-06T22:25:08.923Z,58.90
2023-04-06T22:27:35.543Z,58.64
2023-04-06T22:30:02.594Z,59.15
2023-04-06T22:32:29.167Z,59.60
2023-04-06T22:34:55.765Z,59.65
2023-04-06T22:37:22.198Z,59.81
2023-04-06T22:39:48.598Z,59.79
2023-04-06T22:42:14.998Z,60.15
2023-04-06T22:44:41.425Z,59.81
2023-04-06T22:47:07.915Z,60.25
2023-04-06T22:49:34.344Z,60.33
2023-04-06T22:52:00.806Z,60.38
2023-04-06T22:54:27.206Z,60.45
2023-04-06T22:56:53.796Z,60.76
2023-04-06T22:59:20.627Z,60.60
2023-04-06T23:01:47.088Z,60.65
2023-04-06T23:04:13.615Z,60.76
2023-04-06T23:06:40.075Z,60.76
2023-04-06T23:09:06.484Z,60.70
2023-04-06T23:11:33.211Z,60.90
2023-04-06T23:13:59.610Z,60.98
2023-04-06T23:16:26.398Z,60.98
2023-04-06T23:18:52.820Z,61.24
2023-04-06T23:21:19.204Z,61.45
2023-04-06T23:23:45.921Z,61.62
2023-04-06T23:26:12.367Z,62.05
2023-04-06T23:28:38.744Z,61.64
2023-04-06T23:31:05.179Z,61.51
2023-04-06T23:33:31.565Z,62.39
2023-04-06T23:35:57.961Z,62.55
2023-04-06T23:38:24.456Z,62.93
2023-04-06T23:40:51.254Z,62.92
2023-04-06T23:43:17.645Z,63.41
2023-04-06T23:45:44.062Z,63.36
2023-04-06T23:48:10.767Z,63.74
2023-04-06T23:50:37.786Z,63.40
2023-04-06T23:53:04.704Z,64.00
2023-04-06T23:55:31.590Z,63.99
2023-04-06T23:57:57.985Z,64.34
